Terminal Aerodrome Forecast
Issued by NWS Charleston, WV

Current Version | Previous Version | Text Only | Print | Product List | Glossary Off
Versions: 1 2 3 4 5 6 7 8 9 10 11 12 13 14 15 16 17 18 19 20 21 22 23 24 25 26 27 28 29 30 31

000
FTUS41 KRLX 231723
TAFEKN
TAF
KEKN 231723Z 2318/2418 08010G24KT 4SM -RA OVC017
     FM240300 35004KT 2SM -RASN OVC009
     FM240600 33004KT 2SM -RASN OVC004
     FM241200 30007KT 1 1/2SM -SHSN OVC007=

USA.gov is the U.S. government's official web portal to all federal, state and local government web resources and services.